Granville, West Virginia
Current Conditions -  °F | °C
As of 8:53 PM on Friday 28 Nov 2014 (Local Time) from KMGW Reporting Station
Clear Clear  
Wind Chill: 21°   Ceiling: Unl
Heat Index: 26°   Visibility: 10mi
Dew Point: 16°   Wind: 5mph
Humidity: 66%   Direction: 140°SE
Pressure: 30.22"   Gusts: NA
Location:  39.65°N, 79.99°W
Report Text: KMGW 290153Z 14004KT 10SM CLR M03/M09 A3022 RMK AO2 SLP249 T10331089
Loading
Personal Weather Stations






























Interactive Weather Map New forecast layout! Learn more

10-Day Weather Forecast

Advertisements
Track Severe Weather on mobile